createdAt,value
2022-08-02T06:47:13.087Z,98445.00
2022-08-02T06:57:38.177Z,98436.00
2022-08-02T07:02:59.820Z,98439.00
2022-08-02T07:08:03.615Z,98429.00
2022-08-02T07:13:06.568Z,98437.00
2022-08-02T07:18:14.999Z,98430.00
2022-08-02T07:23:18.128Z,98422.00
2022-08-02T07:28:24.623Z,98419.00
2022-08-02T07:33:38.931Z,98412.00
2022-08-02T07:38:41.984Z,98404.00
2022-08-02T07:43:44.805Z,98405.00
2022-08-02T07:48:48.988Z,98399.00
2022-08-02T07:54:02.666Z,98395.00
2022-08-02T07:59:10.491Z,98392.00
2022-08-02T08:04:13.594Z,98402.00
2022-08-02T08:09:16.524Z,98400.00
2022-08-02T08:14:19.335Z,98402.00
2022-08-02T08:19:22.125Z,98389.00
2022-08-02T08:24:45.432Z,98397.00
2022-08-02T08:29:48.753Z,98404.00
2022-08-02T08:34:51.558Z,98403.00
2022-08-02T08:39:57.945Z,98417.00
2022-08-02T08:45:01.660Z,98415.00
2022-08-02T08:50:06.553Z,98404.00
2022-08-02T08:55:15.212Z,98406.00
2022-08-02T09:00:18.310Z,98397.00
2022-08-02T09:05:21.173Z,98396.00
2022-08-02T09:10:39.024Z,98400.00
2022-08-02T09:15:42.868Z,98397.00
2022-08-02T09:20:57.619Z,98394.00
2022-08-02T09:26:07.450Z,98397.00
2022-08-02T09:31:15.760Z,98397.00
2022-08-02T09:36:18.703Z,98395.00
2022-08-02T09:41:24.520Z,98385.00
2022-08-02T09:46:30.572Z,98384.00
2022-08-02T09:51:35.570Z,98394.00
2022-08-02T09:56:56.799Z,98382.00
2022-08-02T10:02:17.516Z,98376.00
2022-08-02T10:07:23.597Z,98373.00
2022-08-02T10:12:26.707Z,98374.00
2022-08-02T10:17:29.999Z,98363.00
2022-08-02T10:22:35.736Z,98369.00
2022-08-02T10:28:02.992Z,98369.00
2022-08-02T10:33:03.565Z,98361.00
2022-08-02T10:38:12.630Z,98361.00
2022-08-02T10:43:38.369Z,98353.00
2022-08-02T10:54:38.875Z,98360.00
2022-08-02T10:59:41.803Z,98362.00
2022-08-02T11:04:47.312Z,98354.00
2022-08-02T11:09:51.842Z,98358.00
2022-08-02T11:15:07.563Z,98351.00
2022-08-02T11:20:15.469Z,98365.00
2022-08-02T11:25:24.274Z,98354.00
2022-08-02T11:30:27.698Z,98353.00
2022-08-02T11:35:39.158Z,98346.00
2022-08-02T11:40:43.180Z,98331.00
2022-08-02T11:45:46.237Z,98326.00
2022-08-02T11:50:48.998Z,98331.00
2022-08-02T11:55:57.673Z,98331.00
2022-08-02T12:01:00.495Z,98322.00
2022-08-02T12:06:06.943Z,98317.00
2022-08-02T12:11:22.454Z,98319.00
2022-08-02T12:16:44.297Z,98313.00
2022-08-02T12:21:47.833Z,98310.00
2022-08-02T12:26:50.583Z,98307.00
2022-08-02T12:31:56.075Z,98315.00
2022-08-02T12:37:07.845Z,98307.00
2022-08-02T12:42:13.955Z,98309.00
2022-08-02T12:47:17.703Z,98311.00
2022-08-02T12:52:25.368Z,98308.00
2022-08-02T12:57:28.291Z,98311.00
2022-08-02T13:02:31.682Z,98305.00
2022-08-02T13:07:34.382Z,98299.00
2022-08-02T13:12:39.551Z,98286.00
2022-08-02T13:17:42.536Z,98298.00
2022-08-02T13:22:52.946Z,98283.00
2022-08-02T13:27:56.407Z,98286.00
2022-08-02T13:33:01.334Z,98282.00
2022-08-02T13:38:04.617Z,98286.00
2022-08-02T13:43:07.414Z,98270.00
2022-08-02T13:48:16.607Z,98260.00
2022-08-02T13:53:22.927Z,98264.00
2022-08-02T13:58:25.800Z,98260.00
2022-08-02T14:04:07.971Z,98255.00
2022-08-02T14:08:52.630Z,98252.00
2022-08-02T14:13:55.284Z,98249.00
2022-08-02T14:18:58.133Z,98250.00
2022-08-02T14:24:01.002Z,98244.00
2022-08-02T14:29:04.253Z,98258.00
2022-08-02T14:34:07.237Z,98259.00
2022-08-02T14:39:10.478Z,98252.00
2022-08-02T14:44:13.214Z,98256.00
2022-08-02T14:49:24.863Z,98252.00
2022-08-02T14:54:31.624Z,98244.00
2022-08-02T14:59:34.394Z,98240.00
2022-08-02T15:04:42.809Z,98239.00
2022-08-02T15:09:46.559Z,98243.00
2022-08-02T15:14:49.392Z,98229.00
2022-08-02T15:19:57.590Z,98238.00
2022-08-02T15:25:15.587Z,98235.00
2022-08-02T15:30:19.399Z,98229.00
2022-08-02T15:35:22.405Z,98224.00
2022-08-02T15:40:25.198Z,98211.00
2022-08-02T15:45:28.046Z,98219.00
2022-08-02T15:50:30.825Z,98219.00
2022-08-02T15:55:52.135Z,98217.00
2022-08-02T16:00:56.836Z,98213.00
2022-08-02T16:05:59.747Z,98219.00
2022-08-02T16:11:02.453Z,98220.00
2022-08-02T16:16:05.502Z,98218.00
2022-08-02T16:21:08.299Z,98223.00
2022-08-02T16:26:11.116Z,98215.00
2022-08-02T16:31:13.963Z,98215.00
2022-08-02T16:36:19.616Z,98219.00
2022-08-02T16:41:23.782Z,98217.00
2022-08-02T16:46:46.570Z,98222.00
2022-08-02T16:51:54.202Z,98217.00
2022-08-02T16:56:57.117Z,98212.00
2022-08-02T17:02:11.207Z,98208.00
2022-08-02T17:08:15.519Z,98207.00
2022-08-02T17:12:38.510Z,98213.00
2022-08-02T17:17:42.153Z,98222.00
2022-08-02T17:22:46.148Z,98219.00
2022-08-02T17:27:55.745Z,98231.00
2022-08-02T17:32:59.409Z,98234.00
2022-08-02T17:38:02.282Z,98228.00
2022-08-02T17:43:14.765Z,98236.00
2022-08-02T17:48:19.479Z,98235.00
2022-08-02T17:53:36.225Z,98234.00
2022-08-02T17:58:39.264Z,98222.00
2022-08-02T18:03:54.824Z,98227.00
2022-08-02T18:08:57.738Z,98234.00
2022-08-02T18:14:00.568Z,98223.00
2022-08-02T18:19:04.522Z,98226.00
2022-08-02T18:24:13.225Z,98229.00
2022-08-02T18:29:16.067Z,98232.00
2022-08-02T18:34:24.368Z,98228.00
2022-08-02T18:39:27.283Z,98242.00
2022-08-02T18:44:35.962Z,98244.00
2022-08-02T18:49:46.344Z,98235.00
2022-08-02T18:54:50.703Z,98245.00
2022-08-02T18:59:53.487Z,98243.00
2022-08-02T19:04:56.421Z,98243.00
2022-08-02T19:09:59.479Z,98246.00
2022-08-02T19:15:02.380Z,98255.00
2022-08-02T19:20:06.473Z,98259.00
2022-08-02T19:25:16.040Z,98256.00
2022-08-02T19:30:21.340Z,98253.00
2022-08-02T19:35:31.634Z,98263.00
2022-08-02T19:40:39.871Z,98269.00
2022-08-02T19:45:50.045Z,98267.00
2022-08-02T19:50:56.546Z,98269.00
2022-08-02T19:56:04.418Z,98282.00
2022-08-02T20:01:07.801Z,98284.00
2022-08-02T20:06:20.114Z,98283.00
2022-08-02T20:11:35.064Z,98285.00
2022-08-02T20:16:38.504Z,98274.00
2022-08-02T20:21:52.907Z,98279.00
2022-08-02T20:27:00.454Z,98282.00
2022-08-02T20:32:04.005Z,98285.00
2022-08-02T20:37:59.455Z,98285.00
2022-08-02T20:42:29.997Z,98282.00
2022-08-02T20:47:40.046Z,98294.00
2022-08-02T20:52:43.137Z,98293.00
2022-08-02T20:58:00.428Z,98294.00
2022-08-02T21:03:05.517Z,98294.00
2022-08-02T21:08:13.869Z,98284.00
2022-08-02T21:13:18.783Z,98284.00
2022-08-02T21:18:25.264Z,98286.00
2022-08-02T21:23:38.532Z,98272.00
2022-08-02T21:28:51.526Z,98269.00
2022-08-02T21:33:59.387Z,98275.00
2022-08-02T21:39:08.719Z,98275.00
2022-08-02T21:44:30.093Z,98268.00
2022-08-02T21:50:09.776Z,98262.00
2022-08-02T21:54:56.551Z,98271.00
2022-08-02T21:59:59.331Z,98260.00
2022-08-02T22:05:03.231Z,98268.00
2022-08-02T22:10:09.083Z,98266.00
2022-08-02T22:15:12.159Z,98264.00
2022-08-02T22:20:19.665Z,98266.00
2022-08-02T22:25:36.736Z,98272.00
2022-08-02T22:30:40.955Z,98275.00
2022-08-02T22:35:43.945Z,98275.00
2022-08-02T22:40:53.684Z,98271.00
2022-08-02T22:45:57.904Z,98281.00
2022-08-02T22:51:00.709Z,98280.00
2022-08-02T22:56:04.643Z,98284.00
2022-08-02T23:01:07.874Z,98270.00
2022-08-02T23:06:10.739Z,98274.00
2022-08-02T23:11:14.408Z,98273.00
2022-08-02T23:16:39.770Z,98273.00
2022-08-02T23:22:01.629Z,98271.00
2022-08-02T23:27:05.264Z,98270.00
2022-08-02T23:32:08.425Z,98263.00
2022-08-02T23:37:12.042Z,98263.00
2022-08-02T23:42:14.973Z,98274.00
2022-08-02T23:47:18.099Z,98270.00
2022-08-02T23:52:20.879Z,98269.00
2022-08-02T23:57:23.803Z,98272.00
